createdAt,value
2022-11-19T00:10:51.665Z,17.60
2022-11-19T00:13:20.286Z,17.73
2022-11-19T00:15:56.587Z,15.80
2022-11-19T00:18:41.234Z,17.60
2022-11-19T00:21:17.890Z,17.73
2022-11-19T00:23:54.417Z,16.45
2022-11-19T00:26:23.648Z,17.52
2022-11-19T00:37:21.937Z,16.15
2022-11-19T00:43:18.982Z,15.88
2022-11-19T00:45:49.372Z,16.08
2022-11-19T00:48:18.942Z,16.85
2022-11-19T00:50:50.379Z,15.15
2022-11-19T00:53:20.913Z,17.13
2022-11-19T00:55:49.502Z,17.80
2022-11-19T01:01:06.105Z,15.45
2022-11-19T01:03:35.704Z,16.65
2022-11-19T01:06:09.748Z,16.73
2022-11-19T01:08:39.755Z,15.23
2022-11-19T01:11:09.964Z,16.35
2022-11-19T01:13:38.229Z,14.88
2022-11-19T01:16:20.936Z,16.92
2022-11-19T01:18:49.608Z,15.55
2022-11-19T01:21:20.021Z,16.10
2022-11-19T01:23:51.324Z,14.85
2022-11-19T01:26:19.853Z,16.80
2022-11-19T01:28:48.945Z,16.33
2022-11-19T01:31:28.131Z,16.00
2022-11-19T01:33:57.487Z,16.35
2022-11-19T01:36:29.122Z,15.90
2022-11-19T01:39:00.132Z,15.20
2022-11-19T01:41:39.507Z,17.02
2022-11-19T01:44:57.934Z,15.25
2022-11-19T01:47:33.472Z,14.55
2022-11-19T01:50:01.790Z,16.38
2022-11-19T01:52:30.966Z,14.55
2022-11-19T01:55:09.221Z,15.20
2022-11-19T01:57:42.914Z,16.25
2022-11-19T02:00:12.595Z,15.05
2022-11-19T02:02:41.963Z,13.18
2022-11-19T02:05:13.210Z,13.25
2022-11-19T02:07:43.769Z,12.88
2022-11-19T02:10:15.076Z,12.95
2022-11-19T02:13:18.944Z,12.75
2022-11-19T02:15:55.176Z,14.23
2022-11-19T02:18:39.301Z,13.63
2022-11-19T02:21:20.895Z,13.50
2022-11-19T02:24:16.215Z,12.35
2022-11-19T02:26:44.781Z,13.57
2022-11-19T02:29:31.766Z,13.02
2022-11-19T02:32:13.794Z,12.10
2022-11-19T02:34:47.017Z,10.80
2022-11-19T02:37:26.129Z,10.05
2022-11-19T02:40:10.343Z,10.13
2022-11-19T02:43:10.178Z,9.73
2022-11-19T02:45:54.230Z,9.80
2022-11-19T02:48:31.270Z,9.25
2022-11-19T02:51:01.970Z,7.80
2022-11-19T02:53:32.201Z,7.75
2022-11-19T02:56:53.962Z,7.22
2022-11-19T03:00:00.026Z,7.10
2022-11-19T03:02:53.953Z,7.22
2022-11-19T03:05:28.932Z,6.93
2022-11-19T03:07:59.163Z,7.25
2022-11-19T03:10:33.949Z,6.90
2022-11-19T03:13:40.672Z,7.00
2022-11-19T03:16:28.779Z,6.75
2022-11-19T03:19:24.380Z,6.95
2022-11-19T03:21:57.481Z,7.13
2022-11-19T03:24:36.137Z,6.75
2022-11-19T03:27:10.265Z,6.57
2022-11-19T03:29:42.494Z,6.22
2022-11-19T03:32:22.899Z,6.97
2022-11-19T03:35:01.628Z,6.38
2022-11-19T03:37:32.491Z,6.25
2022-11-19T03:40:01.030Z,6.95
2022-11-19T03:42:29.380Z,6.65
2022-11-19T03:45:02.467Z,6.78
2022-11-19T03:47:36.041Z,6.15
2022-11-19T03:50:19.725Z,6.50
2022-11-19T03:52:47.859Z,7.00
2022-11-19T03:55:16.497Z,6.57
2022-11-19T03:57:58.357Z,6.57
2022-11-19T04:00:26.633Z,5.95
2022-11-19T04:02:54.639Z,6.45
2022-11-19T04:05:22.932Z,7.38
2022-11-19T04:07:51.573Z,6.43
2022-11-19T04:10:27.052Z,5.82
2022-11-19T04:12:55.176Z,5.68
2022-11-19T04:15:22.891Z,6.07
2022-11-19T04:17:50.556Z,5.75
2022-11-19T04:20:18.671Z,5.57
2022-11-19T04:22:46.376Z,5.35
2022-11-19T04:25:14.201Z,5.28
2022-11-19T04:27:42.527Z,4.75
2022-11-19T04:30:14.539Z,5.65
2022-11-19T04:32:50.400Z,4.65
2022-11-19T04:35:25.026Z,5.18
2022-11-19T04:37:56.493Z,4.78
2022-11-19T04:40:28.719Z,4.40
2022-11-19T04:49:04.612Z,3.90
2022-11-19T04:51:35.045Z,3.95
2022-11-19T04:54:04.553Z,3.92
2022-11-19T09:03:55.869Z,17.45
2022-11-19T09:09:26.626Z,18.20
2022-11-19T09:12:21.329Z,15.70
2022-11-19T09:14:50.940Z,16.02
2022-11-19T09:17:46.339Z,14.88
2022-11-19T09:20:32.700Z,15.05
2022-11-19T09:23:10.144Z,15.65
2022-11-19T09:25:51.008Z,15.52
2022-11-19T09:28:20.478Z,14.52
2022-11-19T09:34:13.213Z,15.45
2022-11-19T09:39:50.932Z,14.95
2022-11-19T09:42:46.575Z,13.98
2022-11-19T09:45:53.976Z,14.65
2022-11-19T09:48:36.418Z,16.15
2022-11-19T09:51:33.188Z,13.20
2022-11-19T09:54:07.650Z,13.05
2022-11-19T09:56:47.299Z,14.30
2022-11-19T09:59:40.664Z,14.68
2022-11-19T10:05:10.309Z,13.63
2022-11-19T10:07:55.731Z,13.88
2022-11-19T10:10:50.195Z,13.98
2022-11-19T10:13:42.782Z,16.35
2022-11-19T10:17:07.482Z,14.57
2022-11-19T10:19:42.771Z,15.95
2022-11-19T10:22:57.726Z,13.75
2022-11-19T10:25:37.387Z,12.88
2022-11-19T13:32:27.363Z,3.58
2022-11-19T13:35:15.173Z,3.50
2022-11-19T13:37:58.255Z,4.85
2022-11-19T13:40:37.516Z,3.63
2022-11-19T13:43:32.503Z,3.90
2022-11-19T13:46:12.664Z,3.88
2022-11-19T13:48:46.461Z,5.43
2022-11-19T13:51:44.313Z,5.35
2022-11-19T13:54:23.462Z,6.20
2022-11-19T13:56:54.911Z,5.60
2022-11-19T13:59:25.286Z,7.68
2022-11-19T14:01:58.881Z,5.95
2022-11-19T14:04:35.229Z,6.20
2022-11-19T14:07:19.444Z,6.18
2022-11-19T14:10:33.205Z,5.57
2022-11-19T14:13:25.694Z,5.10
2022-11-19T14:16:16.396Z,5.13
2022-11-19T14:19:05.124Z,5.57
2022-11-19T14:21:55.927Z,5.05
2022-11-19T14:24:44.561Z,5.10
2022-11-19T14:27:17.789Z,4.07
2022-11-19T14:29:45.210Z,4.70
2022-11-19T14:32:12.778Z,4.30
2022-11-19T14:35:07.514Z,7.53
2022-11-19T14:37:41.872Z,4.53
2022-11-19T14:40:32.321Z,4.78
2022-11-19T14:43:18.271Z,5.03
2022-11-19T14:46:11.417Z,4.80
2022-11-19T14:48:39.646Z,4.85
2022-11-19T14:51:13.160Z,4.03
2022-11-19T14:54:01.702Z,5.95
2022-11-19T14:56:30.789Z,5.43
2022-11-19T14:59:23.340Z,4.05
2022-11-19T15:01:55.935Z,3.78
2022-11-19T15:04:29.998Z,4.55
2022-11-19T15:06:59.852Z,3.80
2022-11-19T15:10:05.319Z,3.97
2022-11-19T15:12:55.252Z,5.85
2022-11-19T15:15:33.360Z,4.90
2022-11-19T17:50:09.454Z,7.10
2022-11-19T17:52:44.643Z,7.45
2022-11-19T17:55:20.960Z,9.48
2022-11-19T17:58:06.371Z,7.45
2022-11-19T18:00:34.611Z,7.40
2022-11-19T18:03:03.472Z,7.45
2022-11-19T18:05:34.552Z,8.77
2022-11-19T18:08:04.978Z,8.50
2022-11-19T18:10:35.056Z,7.70
2022-11-19T18:13:07.425Z,7.75
2022-11-19T18:15:38.765Z,6.93
2022-11-19T18:18:48.446Z,7.32
2022-11-19T18:21:22.741Z,5.72
2022-11-19T18:24:01.744Z,5.85
2022-11-19T18:26:48.955Z,6.07
2022-11-19T18:29:36.918Z,7.07
2022-11-19T18:32:14.360Z,5.28
2022-11-19T18:35:01.728Z,6.78
2022-11-19T18:37:37.040Z,7.50
2022-11-19T18:40:13.219Z,7.85
2022-11-19T18:43:04.178Z,6.57
2022-11-19T18:45:44.583Z,8.50
2022-11-19T18:48:29.710Z,8.45
2022-11-19T18:51:06.211Z,7.00
2022-11-19T18:53:38.045Z,7.60
2022-11-19T18:56:18.476Z,8.48
2022-11-19T18:59:05.057Z,8.40
2022-11-19T19:01:36.448Z,8.82
2022-11-19T19:04:10.473Z,10.05
2022-11-19T19:07:00.004Z,11.30
2022-11-19T19:13:07.495Z,10.23
2022-11-19T19:15:43.684Z,9.40
2022-11-19T19:18:21.625Z,7.95
2022-11-19T19:21:09.364Z,8.23
2022-11-19T19:23:47.623Z,7.70
2022-11-19T19:26:26.039Z,6.82
2022-11-19T19:29:02.642Z,5.55
2022-11-19T19:31:44.075Z,5.53
2022-11-19T19:34:20.341Z,6.43
2022-11-19T19:37:04.044Z,6.47
2022-11-19T19:39:44.877Z,6.03
2022-11-19T19:42:20.828Z,6.63
2022-11-19T19:45:05.871Z,6.65
2022-11-19T19:47:35.909Z,5.85
2022-11-19T19:50:15.303Z,6.85
2022-11-19T19:52:54.985Z,7.63
2022-11-19T19:55:23.450Z,8.98
2022-11-19T19:57:56.484Z,9.68
2022-11-19T20:00:24.907Z,9.68
2022-11-19T20:02:55.615Z,8.55
2022-11-19T20:05:33.379Z,9.55
2022-11-19T20:08:06.395Z,9.70
2022-11-19T20:10:40.107Z,9.75
2022-11-19T22:28:51.872Z,11.02
2022-11-19T22:31:36.409Z,10.90
2022-11-19T22:34:07.633Z,20.77
2022-11-19T22:36:36.961Z,12.65
2022-11-19T22:39:27.476Z,13.18
2022-11-19T22:48:49.891Z,13.15
2022-11-19T22:54:06.770Z,15.73
2022-11-19T23:34:48.206Z,16.45
2022-11-19T23:37:33.158Z,17.52
2022-11-19T23:40:16.879Z,16.98
2022-11-19T23:42:53.456Z,17.55
2022-11-19T23:45:25.886Z,17.67
2022-11-19T23:47:55.084Z,17.45
2022-11-19T23:50:27.634Z,17.70
2022-11-19T23:53:12.906Z,20.20
2022-11-19T23:55:49.672Z,16.83
2022-11-19T23:58:23.596Z,16.58
